NCAR-RAP Real-Time Weather Data

Output produced by METARs form (27 July 2017  18:45 UTC)
found at http://weather.rap.ucar.edu/surface/
 
Conditions at: KFMY observed 27 July 2017  17:53 UTC
Temperature: 33.3°C (92°F)
Dewpoint: 23.3°C (74°F) [RH = 56%]
Pressure (altimeter): 30.01 inches Hg (1016.3 mb)
[Sea-level pressure: 1016.2 mb]
Winds: missing
Visibility: 10 or more miles (16+ km)
Ceiling: 4700 feet AGL
Clouds: broken clouds at 4700 feet AGL
Present Weather: no significant weather observed at this time
KFMY 271753Z 10SM BKN047 33/23 A3001 RMK AO2 SLP162 T03330233 10333 20267 58009

Conditions at: KFMY observed 27 July 2017  16:53 UTC
Temperature: 32.8°C (91°F)
Dewpoint: 23.9°C (75°F) [RH = 60%]
Pressure (altimeter): 30.02 inches Hg (1016.7 mb)
[Sea-level pressure: 1016.8 mb]
Winds: calm
Visibility: 10 or more miles (16+ km)
Ceiling: 4200 feet AGL
Clouds: broken clouds at 4200 feet AGL
broken clouds at 5000 feet AGL
Present Weather: no significant weather observed at this time
KFMY 271653Z 00000KT 10SM BKN042 BKN050 33/24 A3002 RMK AO2 SLP168 T03280239

Conditions at: KFMY observed 27 July 2017  15:53 UTC
Temperature: 32.8°C (91°F)
Dewpoint: 23.9°C (75°F) [RH = 60%]
Pressure (altimeter): 30.03 inches Hg (1017.0 mb)
[Sea-level pressure: 1017.1 mb]
Winds: calm
Visibility: 10 or more miles (16+ km)
Ceiling: at least 12,000 feet AGL
Clouds: sky clear below 12,000 feet AGL
Present Weather: no significant weather observed at this time
KFMY 271553Z 00000KT 10SM CLR 33/24 A3003 RMK AO2 SLP171 T03280239

Conditions at: KFMY observed 27 July 2017  14:53 UTC
Temperature: 31.1°C (88°F)
Dewpoint: 24.4°C (76°F) [RH = 68%]
Pressure (altimeter): 30.03 inches Hg (1017.0 mb)
[Sea-level pressure: 1017.2 mb]
Winds: from the SSE (160 degrees) at 5 MPH (4 knots; 2.1 m/s)
Visibility: 10 or more miles (16+ km)
Ceiling: at least 12,000 feet AGL
Clouds: sky clear below 12,000 feet AGL
Present Weather: no significant weather observed at this time
KFMY 271453Z 16004KT 10SM CLR 31/24 A3003 RMK AO2 SLP172 T03110244 50002

Conditions at: KFMY observed 27 July 2017  13:53 UTC
Temperature: 30.0°C (86°F)
Dewpoint: 24.4°C (76°F) [RH = 72%]
Pressure (altimeter): 30.04 inches Hg (1017.4 mb)
[Sea-level pressure: 1017.3 mb]
Winds: from the SE (130 degrees) at 7 MPH (6 knots; 3.1 m/s)
Visibility: 10 or more miles (16+ km)
Ceiling: at least 12,000 feet AGL
Clouds: sky clear below 12,000 feet AGL
Present Weather: no significant weather observed at this time
KFMY 271353Z 13006KT 10SM CLR 30/24 A3004 RMK AO2 SLP173 T03000244

Conditions at: KFMY observed 27 July 2017  12:53 UTC
Temperature: 27.8°C (82°F)
Dewpoint: 25.6°C (78°F) [RH = 88%]
Pressure (altimeter): 30.04 inches Hg (1017.4 mb)
[Sea-level pressure: 1017.4 mb]
Winds: from the ENE (70 degrees) at 3 MPH (3 knots; 1.6 m/s)
Visibility: 10 or more miles (16+ km)
Ceiling: at least 12,000 feet AGL
Clouds: sky clear below 12,000 feet AGL
Present Weather: no significant weather observed at this time
KFMY 271253Z 07003KT 10SM CLR 28/26 A3004 RMK AO2 SLP174 T02780256

Conditions at: KFMY observed 27 July 2017  11:53 UTC
Temperature: 26.1°C (79°F)
Dewpoint: 25.6°C (78°F) [RH = 97%]
Pressure (altimeter): 30.03 inches Hg (1017.0 mb)
[Sea-level pressure: 1017.0 mb]
Winds: calm
Visibility: 10 or more miles (16+ km)
Ceiling: at least 12,000 feet AGL
Clouds: sky clear below 12,000 feet AGL
Present Weather: no significant weather observed at this time
KFMY 271153Z 00000KT 10SM CLR 26/26 A3003 RMK AO2 SLP170 70071 T02610256 10261 20250 50015

Conditions at: KFMY observed 27 July 2017  10:53 UTC
Temperature: 25.6°C (78°F)
Dewpoint: 23.9°C (75°F) [RH = 90%]
Pressure (altimeter): 30.03 inches Hg (1017.0 mb)
[Sea-level pressure: 1017.1 mb]
Winds: from the ENE (70 degrees) at 3 MPH (3 knots; 1.6 m/s)
Visibility: 10 or more miles (16+ km)
Ceiling: at least 12,000 feet AGL
Clouds: sky clear below 12,000 feet AGL
Present Weather: no significant weather observed at this time
KFMY 271053Z 07003KT 10SM CLR 26/24 A3003 RMK AO2 SLP171 T02560239

Conditions at: KFMY observed 27 July 2017  09:53 UTC
Temperature: 25.6°C (78°F)
Dewpoint: 23.9°C (75°F) [RH = 90%]
Pressure (altimeter): 30.02 inches Hg (1016.7 mb)
[Sea-level pressure: 1016.7 mb]
Winds: from the NNW (330 degrees) at 7 MPH (6 knots; 3.1 m/s)
Visibility: 10 or more miles (16+ km)
Ceiling: at least 12,000 feet AGL
Clouds: few clouds at 2300 feet AGL
Present Weather: automated observation with no human augmentation;
there may or may not be significant weather present at this time
KFMY 270953Z AUTO 33006KT 10SM FEW023 26/24 A3002 RMK AO2 SLP167 T02560239

Conditions at: KFMY observed 27 July 2017  08:53 UTC
Temperature: 25.0°C (77°F)
Dewpoint: 23.9°C (75°F) [RH = 94%]
Pressure (altimeter): 29.98 inches Hg (1015.3 mb)
[Sea-level pressure: 1015.5 mb]
Winds: from the ESE (120 degrees) at 5 MPH (4 knots; 2.1 m/s)
Visibility: 10 or more miles (16+ km)
Ceiling: at least 12,000 feet AGL
Clouds: sky clear below 12,000 feet AGL
Present Weather: automated observation with no human augmentation;
there may or may not be significant weather present at this time
KFMY 270853Z AUTO 12004KT 10SM CLR 25/24 A2998 RMK AO2 SLP155 T02500239 58020

Conditions at: KFMY observed 27 July 2017  07:53 UTC
Temperature: 26.1°C (79°F)
Dewpoint: 23.3°C (74°F) [RH = 85%]
Pressure (altimeter): 30.01 inches Hg (1016.3 mb)
[Sea-level pressure: 1016.4 mb]
Winds: calm
Visibility: 10 or more miles (16+ km)
Ceiling: at least 12,000 feet AGL
Clouds: sky clear below 12,000 feet AGL
Present Weather: automated observation with no human augmentation;
there may or may not be significant weather present at this time
KFMY 270753Z AUTO 00000KT 10SM CLR 26/23 A3001 RMK AO2 SLP164 T02610233

Conditions at: KFMY observed 27 July 2017  07:37 UTC
Temperature: 26.1°C (79°F)
Dewpoint: 23.9°C (75°F) [RH = 88%]
Pressure (altimeter): 30.02 inches Hg (1016.7 mb)
Winds: from the N (350 degrees) at 3 MPH (3 knots; 1.6 m/s)
Visibility: 10 or more miles (16+ km)
Ceiling: at least 12,000 feet AGL
Clouds: scattered clouds at 2600 feet AGL
Present Weather: automated observation with no human augmentation;
there may or may not be significant weather present at this time
KFMY 270737Z AUTO 35003KT 10SM SCT026 26/24 A3002 RMK AO2 T02610239

Conditions at: KFMY observed 27 July 2017  07:26 UTC
Temperature: 26.1°C (79°F)
Dewpoint: 23.9°C (75°F) [RH = 88%]
Pressure (altimeter): 30.03 inches Hg (1017.0 mb)
Winds: from the WNW (290 degrees) at 3 MPH (3 knots; 1.6 m/s)
Visibility: 10 or more miles (16+ km)
Ceiling: 2600 feet AGL
Clouds: broken clouds at 2600 feet AGL
Present Weather: automated observation with no human augmentation;
there may or may not be significant weather present at this time
KFMY 270726Z AUTO 29003KT 10SM BKN026 26/24 A3003 RMK AO2 T02610239

Conditions at: KFMY observed 27 July 2017  07:00 UTC
Temperature: 25.6°C (78°F)
Dewpoint: 24.4°C (76°F) [RH = 93%]
Pressure (altimeter): 30.03 inches Hg (1017.0 mb)
Winds: from the WSW (240 degrees) at 3 MPH (3 knots; 1.6 m/s)
Visibility: 10 or more miles (16+ km)
Ceiling: at least 12,000 feet AGL
Clouds: scattered clouds at 2400 feet AGL
Present Weather: automated observation with no human augmentation;
there may or may not be significant weather present at this time
KFMY 270700Z AUTO 24003KT 10SM SCT024 26/24 A3003 RMK AO2 T02560244

Conditions at: KFMY observed 27 July 2017  06:53 UTC
Temperature: 26.1°C (79°F)
Dewpoint: 24.4°C (76°F) [RH = 90%]
Pressure (altimeter): 30.03 inches Hg (1017.0 mb)
[Sea-level pressure: 1017.2 mb]
Winds: from the SSW (200 degrees) at 5 MPH (4 knots; 2.1 m/s)
Visibility: 10 or more miles (16+ km)
Ceiling: 2300 feet AGL
Clouds: broken clouds at 2300 feet AGL
broken clouds at 3200 feet AGL
Present Weather: automated observation with no human augmentation;
there may or may not be significant weather present at this time
KFMY 270653Z AUTO 20004KT 10SM BKN023 BKN032 26/24 A3003 RMK AO2 SLP172 T02610244

Conditions at: KFMY observed 27 July 2017  06:33 UTC
Temperature: 26.1°C (79°F)
Dewpoint: 25.0°C (77°F) [RH = 94%]
Pressure (altimeter): 30.05 inches Hg (1017.7 mb)
Winds: calm
Visibility: 10 or more miles (16+ km)
Ceiling: 2300 feet AGL
Clouds: broken clouds at 2300 feet AGL
broken clouds at 4900 feet AGL
Present Weather: automated observation with no human augmentation;
there may or may not be significant weather present at this time
KFMY 270633Z AUTO 00000KT 10SM BKN023 BKN049 26/25 A3005 RMK AO2 LTG DSNT SE-W T02610250

Conditions at: KFMY observed 27 July 2017  06:13 UTC
Temperature: 25.6°C (78°F)
Dewpoint: 23.9°C (75°F) [RH = 90%]
Pressure (altimeter): 30.05 inches Hg (1017.7 mb)
Winds: from the ESE (110 degrees) at 7 MPH (6 knots; 3.1 m/s)
Visibility: 10 or more miles (16+ km)
Ceiling: at least 12,000 feet AGL
Clouds: scattered clouds at 4600 feet AGL
scattered clouds at 5000 feet AGL
Present Weather: automated observation with no human augmentation;
there may or may not be significant weather present at this time
KFMY 270613Z AUTO 11006KT 10SM SCT046 SCT050 26/24 A3005 RMK AO2 LTG DSNT S-W T02560239

Conditions at: KFMY observed 27 July 2017  05:53 UTC
Temperature: 26.1°C (79°F)
Dewpoint: 22.8°C (73°F) [RH = 82%]
Pressure (altimeter): 30.04 inches Hg (1017.4 mb)
[Sea-level pressure: 1017.5 mb]
Winds: from the N (350 degrees) at 3 MPH (3 knots; 1.6 m/s)
Visibility: 10 or more miles (16+ km)
Ceiling: at least 12,000 feet AGL
Clouds: sky clear below 12,000 feet AGL
Present Weather: VCTS  (thunderstorm in vicinity)
KFMY 270553Z AUTO 35003KT 10SM VCTS CLR 26/23 A3004 RMK AO2 LTG DSNT ALQDS SLP175 T02610228 10278 20261 58001

Conditions at: KFMY observed 27 July 2017  05:13 UTC
Temperature: 26.7°C (80°F)
Dewpoint: 24.4°C (76°F) [RH = 87%]
Pressure (altimeter): 30.04 inches Hg (1017.4 mb)
Winds: from the N (10 degrees) at 3 MPH (3 knots; 1.6 m/s)
Visibility: 10 or more miles (16+ km)
Ceiling: at least 12,000 feet AGL
Clouds: sky clear below 12,000 feet AGL
Present Weather: automated observation with no human augmentation;
there may or may not be significant weather present at this time
KFMY 270513Z AUTO 01003KT 10SM CLR 27/24 A3004 RMK AO2 LTG DSNT ALQDS T02670244

Conditions at: KFMY observed 27 July 2017  04:53 UTC
Temperature: 26.7°C (80°F)
Dewpoint: 25.0°C (77°F) [RH = 90%]
Pressure (altimeter): 30.05 inches Hg (1017.7 mb)
[Sea-level pressure: 1017.8 mb]
Winds: from the NW (320 degrees) at 5 MPH (4 knots; 2.1 m/s)
Visibility: 10 or more miles (16+ km)
Ceiling: at least 12,000 feet AGL
Clouds: few clouds at 6000 feet AGL
Present Weather: VCTS  (thunderstorm in vicinity)
KFMY 270453Z AUTO 32004KT 10SM VCTS FEW060 27/25 A3005 RMK AO2 LTG DSNT ALQDS TSE09 SLP178 T02670250 403500250

Conditions at: KFMY observed 27 July 2017  04:40 UTC
Temperature: 26.7°C (80°F)
Dewpoint: 25.0°C (77°F) [RH = 90%]
Pressure (altimeter): 30.05 inches Hg (1017.7 mb)
Winds: from the WNW (290 degrees) at 7 MPH (6 knots; 3.1 m/s)
Visibility: 10 or more miles (16+ km)
Ceiling: at least 12,000 feet AGL
Clouds: few clouds at 3500 feet AGL
scattered clouds at 4300 feet AGL
scattered clouds at 6000 feet AGL
Present Weather: VCTS  (thunderstorm in vicinity)
KFMY 270440Z AUTO 29006KT 10SM VCTS FEW035 SCT043 SCT060 27/25 A3005 RMK AO2 LTG DSNT ALQDS TSE09 T02670250

Conditions at: KFMY observed 27 July 2017  04:19 UTC
Temperature: 26.7°C (80°F)
Dewpoint: 25.0°C (77°F) [RH = 90%]
Pressure (altimeter): 30.04 inches Hg (1017.4 mb)
Winds: from the N (350 degrees) at 5 MPH (4 knots; 2.1 m/s)
Visibility: 10 or more miles (16+ km)
Ceiling: 3300 feet AGL
Clouds: few clouds at 1400 feet AGL
broken clouds at 3300 feet AGL
overcast cloud deck at 4500 feet AGL
Present Weather: automated observation with no human augmentation;
there may or may not be significant weather present at this time
KFMY 270419Z AUTO 35004KT 10SM FEW014 BKN033 OVC045 27/25 A3004 RMK AO2 TSE09 T02670250

Conditions at: KFMY observed 27 July 2017  04:10 UTC
Temperature: 27.2°C (81°F)
Dewpoint: 25.6°C (78°F) [RH = 91%]
Pressure (altimeter): 30.05 inches Hg (1017.7 mb)
Winds: from the NW (310 degrees) at 8 MPH (7 knots; 3.6 m/s)
Visibility: 10 or more miles (16+ km)
Ceiling: 2400 feet AGL
Clouds: scattered clouds at 1500 feet AGL
broken clouds at 2400 feet AGL
overcast cloud deck at 4500 feet AGL
Present Weather: automated observation with no human augmentation;
there may or may not be significant weather present at this time
KFMY 270410Z AUTO 31007KT 10SM SCT015 BKN024 OVC045 27/26 A3005 RMK AO2 LTG DSNT NW TSE09 T02720256

Conditions at: KFMY observed 27 July 2017  03:53 UTC
Temperature: 27.8°C (82°F)
Dewpoint: 26.7°C (80°F) [RH = 94%]
Pressure (altimeter): 30.05 inches Hg (1017.7 mb)
[Sea-level pressure: 1017.8 mb]
Winds: from the NNW (340 degrees) at 5 MPH (4 knots; 2.1 m/s)
Visibility: 10 or more miles (16+ km)
Ceiling: 4500 feet AGL
Clouds: broken clouds at 4500 feet AGL
Present Weather: TS  (thunderstorm)
KFMY 270353Z AUTO 34004KT 10SM TS BKN045 28/27 A3005 RMK AO2 LTG DSNT ALQDS TSB43 SLP178 T02780267

Conditions at: KFMY observed 27 July 2017  03:49 UTC
Temperature: 28.0°C (82°F)
Dewpoint: 27.0°C (81°F) [RH = 94%]
Pressure (altimeter): 30.05 inches Hg (1017.7 mb)
Winds: calm
Visibility: 10 or more miles (16+ km)
Ceiling: 4500 feet AGL
Clouds: broken clouds at 4500 feet AGL
Present Weather: TS  (thunderstorm)
KFMY 270349Z AUTO 00000KT 10SM TS BKN045 28/27 A3005 RMK AO2 LTG DSNT ALQDS TSB43

Conditions at: KFMY observed 27 July 2017  03:14 UTC
Temperature: 27.8°C (82°F)
Dewpoint: 26.7°C (80°F) [RH = 94%]
Pressure (altimeter): 30.05 inches Hg (1017.7 mb)
Winds: from the SE (130 degrees) at 3 MPH (3 knots; 1.6 m/s)
Visibility: 10 or more miles (16+ km)
Ceiling: 4300 feet AGL
Clouds: broken clouds at 4300 feet AGL
overcast cloud deck at 9000 feet AGL
Present Weather: VCTS  (thunderstorm in vicinity)
KFMY 270314Z AUTO 13003KT 10SM VCTS BKN043 OVC090 28/27 A3005 RMK AO2 LTG DSNT ALQDS T02780267

Conditions at: KFMY observed 27 July 2017  02:53 UTC
Temperature: 27.2°C (81°F)
Dewpoint: 26.1°C (79°F) [RH = 94%]
Pressure (altimeter): 30.04 inches Hg (1017.4 mb)
[Sea-level pressure: 1017.5 mb]
Winds: from the SSE (150 degrees) at 5 MPH (4 knots; 2.1 m/s)
Visibility: 10 or more miles (16+ km)
Ceiling: 4300 feet AGL
Clouds: broken clouds at 4300 feet AGL
overcast cloud deck at 8500 feet AGL
Present Weather: automated observation with no human augmentation;
there may or may not be significant weather present at this time
KFMY 270253Z AUTO 15004KT 10SM BKN043 OVC085 27/26 A3004 RMK AO2 LTG DSNT W-NE SLP175 T02720261 53011

Conditions at: KFMY observed 27 July 2017  02:25 UTC
Temperature: 27.2°C (81°F)
Dewpoint: 26.1°C (79°F) [RH = 94%]
Pressure (altimeter): 30.04 inches Hg (1017.4 mb)
Winds: calm
Visibility: 10 or more miles (16+ km)
Ceiling: 9000 feet AGL
Clouds: few clouds at 4300 feet AGL
scattered clouds at 6000 feet AGL
broken clouds at 9000 feet AGL
Present Weather: automated observation with no human augmentation;
there may or may not be significant weather present at this time
KFMY 270225Z AUTO 00000KT 10SM FEW043 SCT060 BKN090 27/26 A3004 RMK AO2 LTG DSNT W-N T02720261

Conditions at: KFMY observed 27 July 2017  02:01 UTC
Temperature: 27.2°C (81°F)
Dewpoint: 25.6°C (78°F) [RH = 91%]
Pressure (altimeter): 30.02 inches Hg (1016.7 mb)
Winds: calm
Visibility: 10 or more miles (16+ km)
Ceiling: at least 12,000 feet AGL
Clouds: few clouds at 4300 feet AGL
scattered clouds at 7000 feet AGL
Present Weather: VCTS  (thunderstorm in vicinity)
KFMY 270201Z AUTO 00000KT 10SM VCTS FEW043 SCT070 27/26 A3002 RMK AO2 LTG DSNT NW T02720256

Conditions at: KFMY observed 27 July 2017  01:53 UTC
Temperature: 26.7°C (80°F)
Dewpoint: 25.6°C (78°F) [RH = 94%]
Pressure (altimeter): 30.02 inches Hg (1016.7 mb)
[Sea-level pressure: 1016.6 mb]
Winds: calm
Visibility: 10 or more miles (16+ km)
Ceiling: at least 12,000 feet AGL
Clouds: few clouds at 7000 feet AGL
Present Weather: no significant weather observed at this time
KFMY 270153Z 00000KT 10SM FEW070 27/26 A3002 RMK AO2 TSE17 SLP166 T02670256

Conditions at: KFMY observed 27 July 2017  01:23 UTC
Temperature: 27.2°C (81°F)
Dewpoint: 26.1°C (79°F) [RH = 94%]
Pressure (altimeter): 30.01 inches Hg (1016.3 mb)
Winds: from the E (100 degrees) at 3 MPH (3 knots; 1.6 m/s)
Visibility: 10 or more miles (16+ km)
Ceiling: 7000 feet AGL
Clouds: few clouds at 4900 feet AGL
scattered clouds at 5500 feet AGL
broken clouds at 7000 feet AGL
Present Weather: no significant weather observed at this time
KFMY 270123Z 10003KT 10SM FEW049 SCT055 BKN070 27/26 A3001 RMK AO2 TSE17 T02720261

Conditions at: KFMY observed 27 July 2017  00:53 UTC
Temperature: 26.7°C (80°F)
Dewpoint: 25.6°C (78°F) [RH = 94%]
Pressure (altimeter): 30.01 inches Hg (1016.3 mb)
[Sea-level pressure: 1016.4 mb]
Winds: calm
Visibility: 10 or more miles (16+ km)
Ceiling: 4300 feet AGL
Clouds: broken clouds at 4300 feet AGL
overcast cloud deck at 5000 feet AGL
Present Weather: TS  (thunderstorm)
KFMY 270053Z 00000KT 10SM TS BKN043 OVC050 27/26 A3001 RMK AO2 TSB41 SLP164 T02670256

Conditions at: KFMY observed 26 July 2017  23:53 UTC
Temperature: 26.1°C (79°F)
Dewpoint: 25.0°C (77°F) [RH = 94%]
Pressure (altimeter): 30.01 inches Hg (1016.3 mb)
[Sea-level pressure: 1016.3 mb]
Winds: calm
Visibility: 8 miles (13 km)
Ceiling: 5500 feet AGL
Clouds: overcast cloud deck at 5500 feet AGL
Present Weather: no significant weather observed at this time
KFMY 262353Z 00000KT 8SM OVC055 26/25 A3001 RMK AO2 LTG DSNT NW-NE RAE23B38E53 TSE18 SLP163 P0010 60071 T02610250 10350 20250 53002

Conditions at: KFMY observed 26 July 2017  23:33 UTC
Temperature: 26.1°C (79°F)
Dewpoint: 23.3°C (74°F) [RH = 85%]
Pressure (altimeter): 30.00 inches Hg (1016.0 mb)
Winds: from the ENE (70 degrees) at 6 MPH (5 knots; 2.6 m/s)
Visibility: 8 miles (13 km)
Ceiling: 5500 feet AGL
Clouds: broken clouds at 5500 feet AGL
Present Weather: no significant weather observed at this time
KFMY 262333Z 07005KT 8SM BKN055 26/23 A3000 RMK AO2 LTG DSNT NW-NE RAE23 TSE18 P0010 T02610233

Conditions at: KFMY observed 26 July 2017  23:24 UTC
Temperature: 25.6°C (78°F)
Dewpoint: 22.8°C (73°F) [RH = 85%]
Pressure (altimeter): 30.00 inches Hg (1016.0 mb)
Winds: variable direction winds at 3 MPH (3 knots; 1.6 m/s)
Visibility: 8 miles (13 km)
Ceiling: 11000 feet AGL
Clouds: few clouds at 5500 feet AGL
scattered clouds at 9000 feet AGL
broken clouds at 11000 feet AGL
Present Weather: VCTS  (thunderstorm in vicinity)
KFMY 262324Z VRB03KT 8SM VCTS FEW055 SCT090 BKN110 26/23 A3000 RMK AO2 LTG DSNT NW-NE RAE23 TSE18 P0010 T02560228

Conditions at: KFMY observed 26 July 2017  23:03 UTC
Temperature: 25.6°C (78°F)
Dewpoint: 23.3°C (74°F) [RH = 87%]
Pressure (altimeter): 29.99 inches Hg (1015.7 mb)
Winds: from the WSW (250 degrees) at 9 MPH (8 knots; 4.2 m/s)
Visibility: 8 miles (13 km)
Ceiling: 10000 feet AGL
Clouds: few clouds at 7500 feet AGL
broken clouds at 10000 feet AGL
broken clouds at 12000 feet AGL
Present Weather: TSRA  (rain associated with thunderstorm(s))
KFMY 262303Z 25008KT 8SM TSRA FEW075 BKN100 BKN120 26/23 A2999 RMK AO2 LTG DSNT NW-NE PRESFR P0009 T02560233

Conditions at: KFMY observed 26 July 2017  22:53 UTC
Temperature: 25.6°C (78°F)
Dewpoint: 24.4°C (76°F) [RH = 93%]
Pressure (altimeter): 30.00 inches Hg (1016.0 mb)
[Sea-level pressure: 1016.2 mb]
Winds: variable direction winds at 3 MPH (3 knots; 1.6 m/s)
Visibility: 2.00 miles (3.22 km)
Ceiling: 9500 feet AGL
Clouds: few clouds at 4600 feet AGL
broken clouds at 9500 feet AGL
overcast cloud deck at 11000 feet AGL
Present Weather: TSRA BR  (rain associated with thunderstorm(s), mist)
KFMY 262253Z VRB03KT 2SM TSRA BR FEW046 BKN095 OVC110 26/24 A3000 RMK AO2 PK WND 19027/2203 LTG DSNT NW-NE RAB2156 SLP162 P0061 T02560244

Conditions at: KFMY observed 26 July 2017  22:24 UTC
Temperature: 27.2°C (81°F)
Dewpoint: 23.3°C (74°F) [RH = 79%]
Pressure (altimeter): 30.02 inches Hg (1016.7 mb)
Winds: from the ESE (120 degrees) at 10 MPH (9 knots; 4.7 m/s)
gusting to 22 MPH (19 knots; 9.9 m/s)
Visibility: 2.00 miles (3.22 km)
Ceiling: 4900 feet AGL
Clouds: scattered clouds at 3100 feet AGL
broken clouds at 4900 feet AGL
overcast cloud deck at 9500 feet AGL
Present Weather: +TSRA  (heavy rain associated with thunderstorm(s))
KFMY 262224Z 12009G19KT 090V150 2SM +TSRA SCT031 BKN049 OVC095 27/23 A3002 RMK AO2 PK WND 19027/2203 LTG DSNT ALQDS RAB2156 PRESRR P0034 T02720233

Conditions at: KFMY observed 26 July 2017  22:17 UTC
Temperature: 26.7°C (80°F)
Dewpoint: 24.4°C (76°F) [RH = 87%]
Pressure (altimeter): 30.00 inches Hg (1016.0 mb)
Winds: from the SE (140 degrees) at 12 MPH (10 knots; 5.2 m/s)
Visibility: 7 miles (11 km)
Ceiling: 2900 feet AGL
Clouds: broken clouds at 2900 feet AGL
broken clouds at 4900 feet AGL
overcast cloud deck at 9000 feet AGL
Present Weather: +TSRA  (heavy rain associated with thunderstorm(s))
KFMY 262217Z 14010KT 110V200 7SM +TSRA BKN029 BKN049 OVC090 27/24 A3000 RMK AO2 PK WND 19027/2203 LTG DSNT NW-NE RAB2156 P0031 T02670244

Conditions at: KFMY observed 26 July 2017  22:11 UTC
Temperature: 27.2°C (81°F)
Dewpoint: 23.3°C (74°F) [RH = 79%]
Pressure (altimeter): 30.00 inches Hg (1016.0 mb)
Winds: from the S (180 degrees) at 8 MPH (7 knots; 3.6 m/s)
gusting to 31 MPH (27 knots; 14.0 m/s)
Visibility: 0.75 miles (1.21 km)
Ceiling: 2400 feet AGL
Clouds: broken clouds at 2400 feet AGL
overcast cloud deck at 5000 feet AGL
Present Weather: +TSRA  (heavy rain associated with thunderstorm(s))
KFMY 262211Z 18007G27KT 3/4SM +TSRA BKN024 OVC050 27/23 A3000 RMK AO2 PK WND 19027/2203 LTG DSNT ALQDS RAB2156 P0020 T02720233

Conditions at: KFMY observed 26 July 2017  22:05 UTC
Temperature: 30.0°C (86°F)
Dewpoint: 26.1°C (79°F) [RH = 80%]
Pressure (altimeter): 30.00 inches Hg (1016.0 mb)
Winds: from the S (180 degrees) at 24 MPH (21 knots; 10.9 m/s)
gusting to 31 MPH (27 knots; 14.0 m/s)
Visibility: 1.50 miles (2.41 km)
Ceiling: 5000 feet AGL
Clouds: scattered clouds at 3000 feet AGL
broken clouds at 5000 feet AGL
Present Weather: +TSRA  (heavy rain associated with thunderstorm(s))
KFMY 262205Z 18021G27KT 1 1/2SM +TSRA SCT030 BKN050 30/26 A3000 RMK AO2 PK WND 19027/2203 VIS 1/2V5 LTG DSNT ALQDS RAB2156 P0003 T03000261

Conditions at: KFMY observed 26 July 2017  21:53 UTC
Temperature: 33.9°C (93°F)
Dewpoint: 25.6°C (78°F) [RH = 62%]
Pressure (altimeter): 29.99 inches Hg (1015.7 mb)
[Sea-level pressure: 1015.6 mb]
Winds: from the W (280 degrees) at 10 MPH (9 knots; 4.7 m/s)
Visibility: 10 or more miles (16+ km)
Ceiling: 5000 feet AGL
Clouds: broken clouds at 5000 feet AGL
Present Weather: TS  (thunderstorm)
KFMY 262153Z 28009KT 10SM TS BKN050 34/26 A2999 RMK AO2 LTG DSNT ALQDS TSB41 SLP156 ONCL LTG CCCG TS S MOV E T03390256

Conditions at: KFMY observed 26 July 2017  21:38 UTC
Temperature: 34.4°C (94°F)
Dewpoint: 25.0°C (77°F) [RH = 58%]
Pressure (altimeter): 29.98 inches Hg (1015.3 mb)
Winds: from the W (270 degrees) at 12 MPH (10 knots; 5.2 m/s)
Visibility: 10 or more miles (16+ km)
Ceiling: 5000 feet AGL
Clouds: broken clouds at 5000 feet AGL
Present Weather: VCTS  (thunderstorm in vicinity)
KFMY 262138Z 27010KT 10SM VCTS BKN050 34/25 A2998 RMK AO2 LTG DSNT ALQDS T03440250

Conditions at: KFMY observed 26 July 2017  20:53 UTC
Temperature: 34.4°C (94°F)
Dewpoint: 25.0°C (77°F) [RH = 58%]
Pressure (altimeter): 30.00 inches Hg (1016.0 mb)
[Sea-level pressure: 1016.2 mb]
Winds: from the WNW (300 degrees) at 9 MPH (8 knots; 4.2 m/s)
Visibility: 10 or more miles (16+ km)
Ceiling: at least 12,000 feet AGL
Clouds: few clouds at 5000 feet AGL
scattered clouds at 8000 feet AGL
Present Weather: no significant weather observed at this time
KFMY 262053Z 30008KT 10SM FEW050 SCT080 34/25 A3000 RMK AO2 LTG DSNT NE-S SLP162 T03440250 56023

Conditions at: KFMY observed 26 July 2017  19:53 UTC
Temperature: 34.4°C (94°F)
Dewpoint: 25.6°C (78°F) [RH = 60%]
Pressure (altimeter): 30.02 inches Hg (1016.7 mb)
[Sea-level pressure: 1016.7 mb]
Winds: from the W (260 degrees) at 13 MPH (11 knots; 5.7 m/s)
Visibility: 10 or more miles (16+ km)
Ceiling: at least 12,000 feet AGL
Clouds: few clouds at 6000 feet AGL
scattered clouds at 9000 feet AGL
Present Weather: no significant weather observed at this time
KFMY 261953Z 26011KT 10SM FEW060 SCT090 34/26 A3002 RMK AO2 LTG DSNT S SLP167 T03440256

Conditions at: KFMY observed 26 July 2017  18:53 UTC
Temperature: 33.9°C (93°F)
Dewpoint: 23.3°C (74°F) [RH = 54%]
Pressure (altimeter): 30.04 inches Hg (1017.4 mb)
[Sea-level pressure: 1017.4 mb]
Winds: variable direction winds at 5 MPH (4 knots; 2.1 m/s)
Visibility: 10 or more miles (16+ km)
Ceiling: 7000 feet AGL
Clouds: scattered clouds at 5000 feet AGL
broken clouds at 7000 feet AGL
Present Weather: no significant weather observed at this time
KFMY 261853Z VRB04KT 10SM SCT050 BKN070 34/23 A3004 RMK AO2 LTG DSNT W SLP174 T03390233